sensor_id;sensor_type;location;lat;lon;timestamp;P1;durP1;ratioP1;P2;durP2;ratioP2
10537;SDS011;5317;49.048;8.468;2023-02-15T00:00:46;30.77;;;19.45;;
10537;SDS011;5317;49.048;8.468;2023-02-15T00:03:15;30.30;;;18.77;;
10537;SDS011;5317;49.048;8.468;2023-02-15T00:05:43;29.03;;;19.90;;
10537;SDS011;5317;49.048;8.468;2023-02-15T00:08:09;29.98;;;18.90;;
10537;SDS011;5317;49.048;8.468;2023-02-15T00:10:36;29.97;;;18.60;;
10537;SDS011;5317;49.048;8.468;2023-02-15T00:13:04;32.90;;;19.73;;
10537;SDS011;5317;49.048;8.468;2023-02-15T00:15:31;29.23;;;18.53;;
10537;SDS011;5317;49.048;8.468;2023-02-15T00:17:59;29.77;;;19.03;;
10537;SDS011;5317;49.048;8.468;2023-02-15T00:20:26;31.40;;;19.63;;
10537;SDS011;5317;49.048;8.468;2023-02-15T00:22:53;30.67;;;18.63;;
10537;SDS011;5317;49.048;8.468;2023-02-15T00:25:20;31.03;;;19.97;;
10537;SDS011;5317;49.048;8.468;2023-02-15T00:27:47;28.20;;;19.43;;
10537;SDS011;5317;49.048;8.468;2023-02-15T00:30:13;32.20;;;20.10;;
10537;SDS011;5317;49.048;8.468;2023-02-15T00:32:40;31.87;;;19.33;;
10537;SDS011;5317;49.048;8.468;2023-02-15T00:35:09;30.40;;;20.17;;
10537;SDS011;5317;49.048;8.468;2023-02-15T00:37:36;31.57;;;19.33;;
10537;SDS011;5317;49.048;8.468;2023-02-15T00:40:03;30.83;;;19.13;;
10537;SDS011;5317;49.048;8.468;2023-02-15T00:42:31;29.97;;;19.70;;
10537;SDS011;5317;49.048;8.468;2023-02-15T00:44:57;30.23;;;19.63;;
10537;SDS011;5317;49.048;8.468;2023-02-15T00:47:24;34.67;;;20.77;;
10537;SDS011;5317;49.048;8.468;2023-02-15T00:49:51;35.33;;;20.53;;
10537;SDS011;5317;49.048;8.468;2023-02-15T00:52:19;33.70;;;20.23;;
10537;SDS011;5317;49.048;8.468;2023-02-15T00:54:46;33.67;;;20.27;;
10537;SDS011;5317;49.048;8.468;2023-02-15T00:57:13;34.77;;;20.60;;
10537;SDS011;5317;49.048;8.468;2023-02-15T00:59:40;32.10;;;20.60;;
10537;SDS011;5317;49.048;8.468;2023-02-15T01:02:07;35.27;;;21.23;;
10537;SDS011;5317;49.048;8.468;2023-02-15T01:04:34;38.63;;;21.00;;
10537;SDS011;5317;49.048;8.468;2023-02-15T01:07:01;35.83;;;21.10;;
10537;SDS011;5317;49.048;8.468;2023-02-15T01:09:30;38.30;;;21.50;;
10537;SDS011;5317;49.048;8.468;2023-02-15T01:11:57;34.23;;;20.97;;
10537;SDS011;5317;49.048;8.468;2023-02-15T01:14:24;33.57;;;19.37;;
10537;SDS011;5317;49.048;8.468;2023-02-15T01:16:50;34.07;;;20.80;;
10537;SDS011;5317;49.048;8.468;2023-02-15T01:19:17;36.33;;;21.77;;
10537;SDS011;5317;49.048;8.468;2023-02-15T01:21:44;32.87;;;20.33;;
10537;SDS011;5317;49.048;8.468;2023-02-15T01:24:11;39.83;;;22.10;;
10537;SDS011;5317;49.048;8.468;2023-02-15T01:26:40;38.90;;;21.57;;
10537;SDS011;5317;49.048;8.468;2023-02-15T01:29:07;35.53;;;20.97;;
10537;SDS011;5317;49.048;8.468;2023-02-15T01:31:34;38.97;;;22.00;;
10537;SDS011;5317;49.048;8.468;2023-02-15T01:34:03;38.23;;;21.03;;
10537;SDS011;5317;49.048;8.468;2023-02-15T01:36:33;35.43;;;21.10;;
10537;SDS011;5317;49.048;8.468;2023-02-15T01:39:00;33.93;;;20.93;;
10537;SDS011;5317;49.048;8.468;2023-02-15T01:41:27;35.50;;;20.23;;
10537;SDS011;5317;49.048;8.468;2023-02-15T01:43:56;33.07;;;21.23;;
10537;SDS011;5317;49.048;8.468;2023-02-15T01:46:26;31.52;;;19.52;;
10537;SDS011;5317;49.048;8.468;2023-02-15T01:48:59;27.20;;;17.20;;
10537;SDS011;5317;49.048;8.468;2023-02-15T01:51:30;28.20;;;17.73;;
10537;SDS011;5317;49.048;8.468;2023-02-15T01:54:01;31.93;;;19.63;;
10537;SDS011;5317;49.048;8.468;2023-02-15T01:56:33;32.73;;;19.40;;
10537;SDS011;5317;49.048;8.468;2023-02-15T01:59:04;30.63;;;19.83;;
10537;SDS011;5317;49.048;8.468;2023-02-15T02:01:35;32.90;;;19.37;;
10537;SDS011;5317;49.048;8.468;2023-02-15T02:04:05;28.97;;;18.17;;
10537;SDS011;5317;49.048;8.468;2023-02-15T02:06:39;27.63;;;17.10;;
10537;SDS011;5317;49.048;8.468;2023-02-15T02:09:06;25.47;;;16.13;;
10537;SDS011;5317;49.048;8.468;2023-02-15T02:11:35;22.97;;;15.57;;
10537;SDS011;5317;49.048;8.468;2023-02-15T02:14:01;21.80;;;14.73;;
10537;SDS011;5317;49.048;8.468;2023-02-15T02:16:34;22.93;;;15.07;;
10537;SDS011;5317;49.048;8.468;2023-02-15T02:19:18;25.67;;;15.93;;
10537;SDS011;5317;49.048;8.468;2023-02-15T02:22:20;23.67;;;15.93;;
10537;SDS011;5317;49.048;8.468;2023-02-15T02:28:14;26.90;;;15.60;;
10537;SDS011;5317;49.048;8.468;2023-02-15T02:31:13;25.60;;;16.47;;
10537;SDS011;5317;49.048;8.468;2023-02-15T02:34:07;24.23;;;16.73;;
10537;SDS011;5317;49.048;8.468;2023-02-15T02:36:42;23.77;;;15.30;;
10537;SDS011;5317;49.048;8.468;2023-02-15T02:39:20;21.73;;;14.97;;
10537;SDS011;5317;49.048;8.468;2023-02-15T02:41:57;26.63;;;17.25;;
10537;SDS011;5317;49.048;8.468;2023-02-15T02:44:29;26.10;;;16.20;;
10537;SDS011;5317;49.048;8.468;2023-02-15T02:47:02;20.67;;;14.97;;
10537;SDS011;5317;49.048;8.468;2023-02-15T02:49:36;25.80;;;15.60;;
10537;SDS011;5317;49.048;8.468;2023-02-15T02:52:05;23.10;;;15.60;;
10537;SDS011;5317;49.048;8.468;2023-02-15T02:54:33;23.60;;;15.70;;
10537;SDS011;5317;49.048;8.468;2023-02-15T02:57:02;23.47;;;15.63;;
10537;SDS011;5317;49.048;8.468;2023-02-15T02:59:31;23.57;;;15.33;;
10537;SDS011;5317;49.048;8.468;2023-02-15T03:02:02;21.80;;;15.87;;
10537;SDS011;5317;49.048;8.468;2023-02-15T03:04:39;21.70;;;14.60;;
10537;SDS011;5317;49.048;8.468;2023-02-15T03:07:10;20.97;;;14.97;;
10537;SDS011;5317;49.048;8.468;2023-02-15T03:09:41;22.60;;;15.53;;
10537;SDS011;5317;49.048;8.468;2023-02-15T03:12:13;22.37;;;14.27;;
10537;SDS011;5317;49.048;8.468;2023-02-15T03:14:44;18.60;;;13.23;;
10537;SDS011;5317;49.048;8.468;2023-02-15T03:17:14;20.40;;;14.23;;
10537;SDS011;5317;49.048;8.468;2023-02-15T03:19:46;21.77;;;14.90;;
10537;SDS011;5317;49.048;8.468;2023-02-15T03:22:18;19.57;;;13.40;;
10537;SDS011;5317;49.048;8.468;2023-02-15T03:24:49;20.23;;;14.43;;
10537;SDS011;5317;49.048;8.468;2023-02-15T03:27:20;19.20;;;13.35;;
10537;SDS011;5317;49.048;8.468;2023-02-15T03:29:52;18.33;;;13.70;;
10537;SDS011;5317;49.048;8.468;2023-02-15T03:32:22;20.50;;;14.30;;
10537;SDS011;5317;49.048;8.468;2023-02-15T03:34:52;20.53;;;14.10;;
10537;SDS011;5317;49.048;8.468;2023-02-15T03:37:20;18.83;;;13.70;;
10537;SDS011;5317;49.048;8.468;2023-02-15T03:39:52;21.70;;;13.87;;
10537;SDS011;5317;49.048;8.468;2023-02-15T03:42:44;19.03;;;14.23;;
10537;SDS011;5317;49.048;8.468;2023-02-15T03:45:15;20.07;;;14.27;;
10537;SDS011;5317;49.048;8.468;2023-02-15T03:47:48;21.17;;;14.13;;
10537;SDS011;5317;49.048;8.468;2023-02-15T03:50:20;24.20;;;14.40;;
10537;SDS011;5317;49.048;8.468;2023-02-15T03:53:09;19.70;;;13.43;;
10537;SDS011;5317;49.048;8.468;2023-02-15T03:55:39;21.73;;;14.70;;
10537;SDS011;5317;49.048;8.468;2023-02-15T03:58:06;21.83;;;14.70;;
10537;SDS011;5317;49.048;8.468;2023-02-15T04:00:52;20.00;;;14.13;;
10537;SDS011;5317;49.048;8.468;2023-02-15T04:03:42;19.93;;;14.57;;
10537;SDS011;5317;49.048;8.468;2023-02-15T04:06:14;21.63;;;14.17;;
10537;SDS011;5317;49.048;8.468;2023-02-15T04:08:42;22.20;;;14.50;;
10537;SDS011;5317;49.048;8.468;2023-02-15T04:11:26;20.53;;;13.30;;
10537;SDS011;5317;49.048;8.468;2023-02-15T04:13:53;19.73;;;13.60;;
10537;SDS011;5317;49.048;8.468;2023-02-15T04:16:21;19.40;;;13.80;;
10537;SDS011;5317;49.048;8.468;2023-02-15T04:18:47;19.53;;;13.87;;
10537;SDS011;5317;49.048;8.468;2023-02-15T04:21:33;21.87;;;14.10;;
10537;SDS011;5317;49.048;8.468;2023-02-15T04:24:17;20.53;;;14.37;;
10537;SDS011;5317;49.048;8.468;2023-02-15T04:27:03;21.00;;;14.10;;
10537;SDS011;5317;49.048;8.468;2023-02-15T04:29:30;20.60;;;13.60;;
10537;SDS011;5317;49.048;8.468;2023-02-15T04:31:59;23.40;;;15.40;;
10537;SDS011;5317;49.048;8.468;2023-02-15T04:34:26;23.73;;;13.47;;
10537;SDS011;5317;49.048;8.468;2023-02-15T04:36:55;23.63;;;14.47;;
10537;SDS011;5317;49.048;8.468;2023-02-15T04:39:22;21.57;;;14.80;;
10537;SDS011;5317;49.048;8.468;2023-02-15T04:41:49;25.00;;;15.13;;
10537;SDS011;5317;49.048;8.468;2023-02-15T04:44:15;20.37;;;14.80;;
10537;SDS011;5317;49.048;8.468;2023-02-15T04:46:42;20.87;;;14.07;;
10537;SDS011;5317;49.048;8.468;2023-02-15T04:49:09;21.57;;;15.10;;
10537;SDS011;5317;49.048;8.468;2023-02-15T04:51:36;21.27;;;14.33;;
10537;SDS011;5317;49.048;8.468;2023-02-15T04:54:04;20.73;;;14.25;;
10537;SDS011;5317;49.048;8.468;2023-02-15T04:56:31;20.92;;;14.07;;
10537;SDS011;5317;49.048;8.468;2023-02-15T04:58:59;20.57;;;13.83;;
10537;SDS011;5317;49.048;8.468;2023-02-15T05:01:26;22.13;;;14.23;;
10537;SDS011;5317;49.048;8.468;2023-02-15T05:03:53;19.93;;;13.17;;
10537;SDS011;5317;49.048;8.468;2023-02-15T05:06:20;20.97;;;14.53;;
10537;SDS011;5317;49.048;8.468;2023-02-15T05:08:47;21.90;;;15.23;;
10537;SDS011;5317;49.048;8.468;2023-02-15T05:11:15;22.60;;;15.53;;
10537;SDS011;5317;49.048;8.468;2023-02-15T05:13:42;23.33;;;14.13;;
10537;SDS011;5317;49.048;8.468;2023-02-15T05:16:09;22.17;;;14.33;;
10537;SDS011;5317;49.048;8.468;2023-02-15T05:18:36;19.50;;;13.30;;
10537;SDS011;5317;49.048;8.468;2023-02-15T05:21:03;20.27;;;13.23;;
10537;SDS011;5317;49.048;8.468;2023-02-15T05:23:30;19.97;;;13.60;;
10537;SDS011;5317;49.048;8.468;2023-02-15T05:25:57;22.30;;;14.33;;
10537;SDS011;5317;49.048;8.468;2023-02-15T05:28:48;20.43;;;13.67;;
10537;SDS011;5317;49.048;8.468;2023-02-15T05:31:15;21.30;;;12.85;;
10537;SDS011;5317;49.048;8.468;2023-02-15T05:33:44;19.45;;;12.38;;
10537;SDS011;5317;49.048;8.468;2023-02-15T05:36:11;18.90;;;13.30;;
10537;SDS011;5317;49.048;8.468;2023-02-15T05:38:38;19.67;;;13.23;;
10537;SDS011;5317;49.048;8.468;2023-02-15T05:41:05;18.75;;;13.40;;
10537;SDS011;5317;49.048;8.468;2023-02-15T05:43:32;20.00;;;13.85;;
10537;SDS011;5317;49.048;8.468;2023-02-15T05:46:00;21.23;;;14.23;;
10537;SDS011;5317;49.048;8.468;2023-02-15T05:48:28;21.70;;;14.53;;
10537;SDS011;5317;49.048;8.468;2023-02-15T05:50:58;20.37;;;13.93;;
10537;SDS011;5317;49.048;8.468;2023-02-15T05:53:26;18.50;;;13.10;;
10537;SDS011;5317;49.048;8.468;2023-02-15T05:55:54;21.00;;;13.83;;
10537;SDS011;5317;49.048;8.468;2023-02-15T05:58:24;18.47;;;13.33;;
10537;SDS011;5317;49.048;8.468;2023-02-15T06:00:52;19.03;;;11.83;;
10537;SDS011;5317;49.048;8.468;2023-02-15T06:03:20;16.87;;;12.27;;
10537;SDS011;5317;49.048;8.468;2023-02-15T06:05:48;19.05;;;12.93;;
10537;SDS011;5317;49.048;8.468;2023-02-15T06:08:15;18.17;;;13.68;;
10537;SDS011;5317;49.048;8.468;2023-02-15T06:10:41;21.63;;;13.30;;
10537;SDS011;5317;49.048;8.468;2023-02-15T06:13:08;18.37;;;13.37;;
10537;SDS011;5317;49.048;8.468;2023-02-15T06:15:35;21.20;;;13.47;;
10537;SDS011;5317;49.048;8.468;2023-02-15T06:18:02;20.80;;;14.15;;
10537;SDS011;5317;49.048;8.468;2023-02-15T06:20:30;19.90;;;12.82;;
10537;SDS011;5317;49.048;8.468;2023-02-15T06:22:57;18.02;;;12.90;;
10537;SDS011;5317;49.048;8.468;2023-02-15T06:25:24;19.08;;;12.93;;
10537;SDS011;5317;49.048;8.468;2023-02-15T06:27:51;18.42;;;12.50;;
10537;SDS011;5317;49.048;8.468;2023-02-15T06:30:18;16.63;;;12.27;;
10537;SDS011;5317;49.048;8.468;2023-02-15T06:32:45;20.35;;;14.20;;
10537;SDS011;5317;49.048;8.468;2023-02-15T06:35:12;18.63;;;12.95;;
10537;SDS011;5317;49.048;8.468;2023-02-15T06:37:40;16.75;;;12.25;;
10537;SDS011;5317;49.048;8.468;2023-02-15T06:40:08;18.15;;;12.80;;
10537;SDS011;5317;49.048;8.468;2023-02-15T06:42:35;19.92;;;13.65;;
10537;SDS011;5317;49.048;8.468;2023-02-15T06:45:02;16.80;;;12.63;;
10537;SDS011;5317;49.048;8.468;2023-02-15T06:47:29;18.70;;;12.98;;
10537;SDS011;5317;49.048;8.468;2023-02-15T06:49:56;18.37;;;13.13;;
10537;SDS011;5317;49.048;8.468;2023-02-15T06:52:23;17.90;;;12.83;;
10537;SDS011;5317;49.048;8.468;2023-02-15T06:54:51;19.55;;;13.15;;
10537;SDS011;5317;49.048;8.468;2023-02-15T06:57:18;20.67;;;13.75;;
10537;SDS011;5317;49.048;8.468;2023-02-15T06:59:45;19.27;;;14.07;;
10537;SDS011;5317;49.048;8.468;2023-02-15T07:02:12;25.50;;;14.45;;
10537;SDS011;5317;49.048;8.468;2023-02-15T07:04:39;22.50;;;14.70;;
10537;SDS011;5317;49.048;8.468;2023-02-15T07:07:07;20.50;;;14.20;;
10537;SDS011;5317;49.048;8.468;2023-02-15T07:09:36;20.42;;;14.35;;
10537;SDS011;5317;49.048;8.468;2023-02-15T07:12:05;22.73;;;15.37;;
10537;SDS011;5317;49.048;8.468;2023-02-15T07:14:49;22.70;;;15.45;;
10537;SDS011;5317;49.048;8.468;2023-02-15T07:17:16;21.90;;;15.15;;
10537;SDS011;5317;49.048;8.468;2023-02-15T07:19:43;20.27;;;14.30;;
10537;SDS011;5317;49.048;8.468;2023-02-15T07:22:10;23.27;;;14.83;;
10537;SDS011;5317;49.048;8.468;2023-02-15T07:24:37;23.13;;;14.87;;
10537;SDS011;5317;49.048;8.468;2023-02-15T07:27:07;25.87;;;14.97;;
10537;SDS011;5317;49.048;8.468;2023-02-15T07:29:34;21.23;;;13.80;;
10537;SDS011;5317;49.048;8.468;2023-02-15T07:32:00;22.90;;;15.32;;
10537;SDS011;5317;49.048;8.468;2023-02-15T07:34:27;20.13;;;14.07;;
10537;SDS011;5317;49.048;8.468;2023-02-15T07:36:54;22.25;;;15.07;;
10537;SDS011;5317;49.048;8.468;2023-02-15T07:39:21;22.38;;;15.75;;
10537;SDS011;5317;49.048;8.468;2023-02-15T07:41:48;21.73;;;15.25;;
10537;SDS011;5317;49.048;8.468;2023-02-15T07:44:16;21.80;;;14.32;;
10537;SDS011;5317;49.048;8.468;2023-02-15T07:46:43;23.20;;;15.73;;
10537;SDS011;5317;49.048;8.468;2023-02-15T07:49:10;19.80;;;14.70;;
10537;SDS011;5317;49.048;8.468;2023-02-15T07:51:37;22.07;;;13.33;;
10537;SDS011;5317;49.048;8.468;2023-02-15T07:54:05;19.97;;;13.07;;
10537;SDS011;5317;49.048;8.468;2023-02-15T07:56:33;23.40;;;14.33;;
10537;SDS011;5317;49.048;8.468;2023-02-15T07:59:00;21.80;;;14.30;;
10537;SDS011;5317;49.048;8.468;2023-02-15T08:01:31;19.60;;;13.53;;
10537;SDS011;5317;49.048;8.468;2023-02-15T08:03:59;19.47;;;13.67;;
10537;SDS011;5317;49.048;8.468;2023-02-15T08:06:26;18.90;;;13.33;;
10537;SDS011;5317;49.048;8.468;2023-02-15T08:08:54;20.53;;;13.87;;
10537;SDS011;5317;49.048;8.468;2023-02-15T08:11:22;18.70;;;13.50;;
10537;SDS011;5317;49.048;8.468;2023-02-15T08:13:58;20.73;;;13.57;;
10537;SDS011;5317;49.048;8.468;2023-02-15T08:16:30;18.70;;;13.23;;
10537;SDS011;5317;49.048;8.468;2023-02-15T08:18:59;18.75;;;12.57;;
10537;SDS011;5317;49.048;8.468;2023-02-15T08:21:28;18.40;;;12.73;;
10537;SDS011;5317;49.048;8.468;2023-02-15T08:23:55;21.23;;;13.40;;
10537;SDS011;5317;49.048;8.468;2023-02-15T08:26:23;18.33;;;12.73;;
10537;SDS011;5317;49.048;8.468;2023-02-15T08:28:51;16.33;;;12.07;;
10537;SDS011;5317;49.048;8.468;2023-02-15T08:31:18;19.02;;;12.90;;
10537;SDS011;5317;49.048;8.468;2023-02-15T08:33:47;15.73;;;11.77;;
10537;SDS011;5317;49.048;8.468;2023-02-15T08:36:17;16.95;;;12.30;;
10537;SDS011;5317;49.048;8.468;2023-02-15T08:38:45;19.37;;;13.03;;
10537;SDS011;5317;49.048;8.468;2023-02-15T08:41:13;17.47;;;12.50;;
10537;SDS011;5317;49.048;8.468;2023-02-15T08:43:42;16.55;;;11.98;;
10537;SDS011;5317;49.048;8.468;2023-02-15T08:46:10;17.10;;;12.63;;
10537;SDS011;5317;49.048;8.468;2023-02-15T08:48:37;17.27;;;12.23;;
10537;SDS011;5317;49.048;8.468;2023-02-15T08:51:07;20.73;;;13.57;;
10537;SDS011;5317;49.048;8.468;2023-02-15T08:53:37;16.63;;;12.83;;
10537;SDS011;5317;49.048;8.468;2023-02-15T08:56:04;18.52;;;13.20;;
10537;SDS011;5317;49.048;8.468;2023-02-15T08:58:32;16.63;;;12.77;;
10537;SDS011;5317;49.048;8.468;2023-02-15T09:00:59;18.08;;;12.82;;
10537;SDS011;5317;49.048;8.468;2023-02-15T09:03:27;17.15;;;12.40;;
10537;SDS011;5317;49.048;8.468;2023-02-15T09:05:58;18.53;;;13.20;;
10537;SDS011;5317;49.048;8.468;2023-02-15T09:08:26;17.13;;;12.57;;
10537;SDS011;5317;49.048;8.468;2023-02-15T09:10:54;18.77;;;13.67;;
10537;SDS011;5317;49.048;8.468;2023-02-15T09:13:30;18.33;;;13.93;;
10537;SDS011;5317;49.048;8.468;2023-02-15T09:15:58;19.73;;;13.10;;
10537;SDS011;5317;49.048;8.468;2023-02-15T09:18:26;19.70;;;13.57;;
10537;SDS011;5317;49.048;8.468;2023-02-15T09:20:53;18.03;;;12.90;;
10537;SDS011;5317;49.048;8.468;2023-02-15T09:23:20;21.07;;;13.73;;
10537;SDS011;5317;49.048;8.468;2023-02-15T09:25:48;17.57;;;13.10;;
10537;SDS011;5317;49.048;8.468;2023-02-15T09:28:15;17.47;;;13.40;;
10537;SDS011;5317;49.048;8.468;2023-02-15T09:30:42;20.30;;;13.37;;
10537;SDS011;5317;49.048;8.468;2023-02-15T09:33:09;17.80;;;12.77;;
10537;SDS011;5317;49.048;8.468;2023-02-15T09:35:36;18.30;;;13.23;;
10537;SDS011;5317;49.048;8.468;2023-02-15T09:38:03;20.43;;;13.83;;
10537;SDS011;5317;49.048;8.468;2023-02-15T09:40:30;20.00;;;13.77;;
10537;SDS011;5317;49.048;8.468;2023-02-15T09:46:08;18.67;;;13.60;;
10537;SDS011;5317;49.048;8.468;2023-02-15T09:48:46;17.17;;;12.27;;
10537;SDS011;5317;49.048;8.468;2023-02-15T09:51:25;17.93;;;12.40;;
10537;SDS011;5317;49.048;8.468;2023-02-15T09:54:30;17.50;;;11.83;;
10537;SDS011;5317;49.048;8.468;2023-02-15T09:57:08;18.57;;;13.07;;
10537;SDS011;5317;49.048;8.468;2023-02-15T09:59:48;18.47;;;12.93;;
10537;SDS011;5317;49.048;8.468;2023-02-15T10:02:29;16.60;;;12.25;;
10537;SDS011;5317;49.048;8.468;2023-02-15T10:05:09;18.25;;;12.57;;
10537;SDS011;5317;49.048;8.468;2023-02-15T10:07:57;17.03;;;12.70;;
10537;SDS011;5317;49.048;8.468;2023-02-15T10:10:46;19.13;;;12.90;;
10537;SDS011;5317;49.048;8.468;2023-02-15T10:13:23;18.20;;;13.05;;
10537;SDS011;5317;49.048;8.468;2023-02-15T10:16:03;17.00;;;12.93;;
10537;SDS011;5317;49.048;8.468;2023-02-15T10:18:44;18.27;;;13.33;;
10537;SDS011;5317;49.048;8.468;2023-02-15T10:21:22;18.30;;;13.43;;
10537;SDS011;5317;49.048;8.468;2023-02-15T10:24:10;17.43;;;12.80;;
10537;SDS011;5317;49.048;8.468;2023-02-15T10:26:47;17.80;;;13.07;;
10537;SDS011;5317;49.048;8.468;2023-02-15T10:29:18;17.65;;;13.02;;
10537;SDS011;5317;49.048;8.468;2023-02-15T10:31:57;20.80;;;14.03;;
10537;SDS011;5317;49.048;8.468;2023-02-15T10:34:31;20.03;;;13.93;;
10537;SDS011;5317;49.048;8.468;2023-02-15T10:37:15;21.47;;;14.63;;
10537;SDS011;5317;49.048;8.468;2023-02-15T10:40:01;20.50;;;14.07;;
10537;SDS011;5317;49.048;8.468;2023-02-15T10:42:39;20.50;;;14.23;;
10537;SDS011;5317;49.048;8.468;2023-02-15T10:45:20;19.83;;;14.30;;
10537;SDS011;5317;49.048;8.468;2023-02-15T10:48:14;21.07;;;14.60;;
10537;SDS011;5317;49.048;8.468;2023-02-15T10:50:49;21.80;;;15.00;;
10537;SDS011;5317;49.048;8.468;2023-02-15T10:53:22;21.90;;;14.73;;
10537;SDS011;5317;49.048;8.468;2023-02-15T10:56:00;22.23;;;14.53;;
10537;SDS011;5317;49.048;8.468;2023-02-15T10:58:37;24.20;;;15.93;;
10537;SDS011;5317;49.048;8.468;2023-02-15T11:01:16;19.13;;;13.87;;
10537;SDS011;5317;49.048;8.468;2023-02-15T11:06:52;25.83;;;15.97;;
10537;SDS011;5317;49.048;8.468;2023-02-15T11:09:24;23.23;;;16.03;;
10537;SDS011;5317;49.048;8.468;2023-02-15T11:11:57;24.57;;;15.77;;
10537;SDS011;5317;49.048;8.468;2023-02-15T11:14:29;27.07;;;16.67;;
10537;SDS011;5317;49.048;8.468;2023-02-15T11:17:02;25.30;;;16.50;;
10537;SDS011;5317;49.048;8.468;2023-02-15T11:19:34;26.90;;;17.50;;
10537;SDS011;5317;49.048;8.468;2023-02-15T11:22:04;26.80;;;18.33;;
10537;SDS011;5317;49.048;8.468;2023-02-15T11:24:34;27.27;;;17.30;;
10537;SDS011;5317;49.048;8.468;2023-02-15T11:27:14;27.20;;;17.87;;
10537;SDS011;5317;49.048;8.468;2023-02-15T11:29:48;25.97;;;16.63;;
10537;SDS011;5317;49.048;8.468;2023-02-15T11:32:21;24.00;;;16.07;;
10537;SDS011;5317;49.048;8.468;2023-02-15T11:34:54;23.67;;;16.07;;
10537;SDS011;5317;49.048;8.468;2023-02-15T11:37:27;21.47;;;15.90;;
10537;SDS011;5317;49.048;8.468;2023-02-15T11:39:59;22.03;;;16.13;;
10537;SDS011;5317;49.048;8.468;2023-02-15T11:42:28;24.73;;;16.40;;
10537;SDS011;5317;49.048;8.468;2023-02-15T11:44:58;25.77;;;17.20;;
10537;SDS011;5317;49.048;8.468;2023-02-15T11:47:28;24.57;;;16.20;;
10537;SDS011;5317;49.048;8.468;2023-02-15T11:49:57;26.57;;;16.47;;
10537;SDS011;5317;49.048;8.468;2023-02-15T11:52:24;24.47;;;16.30;;
10537;SDS011;5317;49.048;8.468;2023-02-15T11:54:51;22.90;;;15.10;;
10537;SDS011;5317;49.048;8.468;2023-02-15T11:57:20;24.10;;;16.60;;
10537;SDS011;5317;49.048;8.468;2023-02-15T11:59:50;27.47;;;17.80;;
10537;SDS011;5317;49.048;8.468;2023-02-15T12:02:22;27.87;;;18.07;;
10537;SDS011;5317;49.048;8.468;2023-02-15T12:04:52;26.73;;;16.43;;
10537;SDS011;5317;49.048;8.468;2023-02-15T12:07:25;23.43;;;17.03;;
10537;SDS011;5317;49.048;8.468;2023-02-15T12:09:56;22.10;;;16.30;;
10537;SDS011;5317;49.048;8.468;2023-02-15T12:12:32;27.10;;;17.40;;
10537;SDS011;5317;49.048;8.468;2023-02-15T12:15:01;23.13;;;16.50;;
10537;SDS011;5317;49.048;8.468;2023-02-15T12:17:30;26.00;;;16.97;;
10537;SDS011;5317;49.048;8.468;2023-02-15T12:20:02;24.63;;;17.00;;
10537;SDS011;5317;49.048;8.468;2023-02-15T12:22:33;24.77;;;16.53;;
10537;SDS011;5317;49.048;8.468;2023-02-15T12:25:04;25.90;;;17.20;;
10537;SDS011;5317;49.048;8.468;2023-02-15T12:27:46;24.87;;;16.33;;
10537;SDS011;5317;49.048;8.468;2023-02-15T12:30:16;21.63;;;15.77;;
10537;SDS011;5317;49.048;8.468;2023-02-15T12:32:47;24.77;;;16.67;;
10537;SDS011;5317;49.048;8.468;2023-02-15T12:35:21;24.57;;;16.73;;
10537;SDS011;5317;49.048;8.468;2023-02-15T12:37:54;27.47;;;17.37;;
10537;SDS011;5317;49.048;8.468;2023-02-15T12:40:23;23.27;;;16.17;;
10537;SDS011;5317;49.048;8.468;2023-02-15T12:42:51;26.40;;;16.40;;
10537;SDS011;5317;49.048;8.468;2023-02-15T12:45:23;20.60;;;16.47;;
10537;SDS011;5317;49.048;8.468;2023-02-15T12:48:08;20.53;;;15.07;;
10537;SDS011;5317;49.048;8.468;2023-02-15T12:50:43;21.40;;;14.93;;
10537;SDS011;5317;49.048;8.468;2023-02-15T12:53:13;20.83;;;15.93;;
10537;SDS011;5317;49.048;8.468;2023-02-15T12:55:51;22.13;;;15.57;;
10537;SDS011;5317;49.048;8.468;2023-02-15T12:58:21;19.57;;;14.87;;
10537;SDS011;5317;49.048;8.468;2023-02-15T13:01:01;17.43;;;13.50;;
10537;SDS011;5317;49.048;8.468;2023-02-15T13:03:30;17.47;;;12.97;;
10537;SDS011;5317;49.048;8.468;2023-02-15T13:05:59;17.50;;;13.83;;
10537;SDS011;5317;49.048;8.468;2023-02-15T13:08:33;17.50;;;13.90;;
10537;SDS011;5317;49.048;8.468;2023-02-15T13:11:04;16.73;;;13.17;;
10537;SDS011;5317;49.048;8.468;2023-02-15T13:13:36;18.80;;;13.47;;
10537;SDS011;5317;49.048;8.468;2023-02-15T13:16:26;16.37;;;13.53;;
10537;SDS011;5317;49.048;8.468;2023-02-15T13:18:56;14.67;;;11.90;;
10537;SDS011;5317;49.048;8.468;2023-02-15T13:21:31;16.50;;;13.07;;
10537;SDS011;5317;49.048;8.468;2023-02-15T13:24:02;17.30;;;14.00;;
10537;SDS011;5317;49.048;8.468;2023-02-15T13:26:32;16.40;;;13.30;;
10537;SDS011;5317;49.048;8.468;2023-02-15T13:29:03;16.03;;;13.10;;
10537;SDS011;5317;49.048;8.468;2023-02-15T13:31:34;15.90;;;13.43;;
10537;SDS011;5317;49.048;8.468;2023-02-15T13:34:03;16.63;;;13.30;;
10537;SDS011;5317;49.048;8.468;2023-02-15T13:36:39;16.17;;;12.90;;
10537;SDS011;5317;49.048;8.468;2023-02-15T13:39:15;16.10;;;13.17;;
10537;SDS011;5317;49.048;8.468;2023-02-15T13:41:51;13.53;;;12.13;;
10537;SDS011;5317;49.048;8.468;2023-02-15T13:47:30;14.20;;;12.43;;
10537;SDS011;5317;49.048;8.468;2023-02-15T13:53:13;15.13;;;12.27;;
10537;SDS011;5317;49.048;8.468;2023-02-15T13:56:04;14.60;;;12.77;;
10537;SDS011;5317;49.048;8.468;2023-02-15T13:58:48;14.80;;;12.67;;
10537;SDS011;5317;49.048;8.468;2023-02-15T14:01:37;14.23;;;12.73;;
10537;SDS011;5317;49.048;8.468;2023-02-15T14:04:13;13.30;;;12.00;;
10537;SDS011;5317;49.048;8.468;2023-02-15T14:07:06;14.00;;;12.60;;
10537;SDS011;5317;49.048;8.468;2023-02-15T14:09:52;13.87;;;12.60;;
10537;SDS011;5317;49.048;8.468;2023-02-15T14:12:37;14.33;;;12.93;;
10537;SDS011;5317;49.048;8.468;2023-02-15T14:15:21;14.00;;;12.80;;
10537;SDS011;5317;49.048;8.468;2023-02-15T14:17:59;14.13;;;12.87;;
10537;SDS011;5317;49.048;8.468;2023-02-15T14:20:41;14.10;;;12.87;;
10537;SDS011;5317;49.048;8.468;2023-02-15T14:23:17;13.93;;;12.63;;
10537;SDS011;5317;49.048;8.468;2023-02-15T14:25:59;15.03;;;13.73;;
10537;SDS011;5317;49.048;8.468;2023-02-15T14:28:33;14.13;;;12.83;;
10537;SDS011;5317;49.048;8.468;2023-02-15T14:31:06;14.80;;;13.60;;
10537;SDS011;5317;49.048;8.468;2023-02-15T14:33:37;14.60;;;13.33;;
10537;SDS011;5317;49.048;8.468;2023-02-15T14:36:08;14.30;;;13.00;;
10537;SDS011;5317;49.048;8.468;2023-02-15T14:38:44;14.23;;;13.13;;
10537;SDS011;5317;49.048;8.468;2023-02-15T14:41:20;14.80;;;13.60;;
10537;SDS011;5317;49.048;8.468;2023-02-15T14:43:56;14.10;;;12.93;;
10537;SDS011;5317;49.048;8.468;2023-02-15T14:46:34;14.77;;;13.57;;
10537;SDS011;5317;49.048;8.468;2023-02-15T14:49:05;13.60;;;12.50;;
10537;SDS011;5317;49.048;8.468;2023-02-15T14:57:25;13.83;;;12.73;;
10537;SDS011;5317;49.048;8.468;2023-02-15T14:59:56;14.67;;;13.47;;
10537;SDS011;5317;49.048;8.468;2023-02-15T15:02:25;14.40;;;13.10;;
10537;SDS011;5317;49.048;8.468;2023-02-15T15:04:56;14.87;;;13.53;;
10537;SDS011;5317;49.048;8.468;2023-02-15T15:07:36;14.83;;;13.53;;
10537;SDS011;5317;49.048;8.468;2023-02-15T15:16:23;15.37;;;14.07;;
10537;SDS011;5317;49.048;8.468;2023-02-15T15:18:54;16.73;;;15.13;;
10537;SDS011;5317;49.048;8.468;2023-02-15T15:35:54;15.40;;;13.80;;
10537;SDS011;5317;49.048;8.468;2023-02-15T15:38:39;15.63;;;14.03;;
10537;SDS011;5317;49.048;8.468;2023-02-15T15:41:18;15.67;;;14.00;;